CSHVD LPCS-LPPT
Flight info
| Callsign | CSHVD |
|---|---|
| Flight time | 0h 9m |
| Altitude | 1500 |
| Route | ENACI TR RALIS |
| Aircraft | AS50/L-VGD/C |
Departure
| Time | 2026-04-21 15:11 |
|---|---|
| Airport | Cascais Airport (LPCS) |
Arrival
| Time | 2026-04-21 15:21 |
|---|---|
| Airport | Lisbon Humberto Delgado Airport (LPPT) |
| Time | Latitude | Longitude | Altitude | Speed | Heading |
|---|---|---|---|---|---|
| 2026-04-21 14:54 | 38.72607 | -9.35668 | 323 ft | 0 kts | 343° |
| 2026-04-21 15:06 | 38.72606 | -9.35667 | 323 ft | 0 kts | 348° |
| 2026-04-21 15:06 | 38.72601 | -9.35658 | 327 ft | 3 kts | 260° |
| 2026-04-21 15:06 | 38.72595 | -9.35661 | 326 ft | 2 kts | 163° |
| 2026-04-21 15:07 | 38.72579 | -9.35655 | 325 ft | 5 kts | 161° |
| 2026-04-21 15:07 | 38.72553 | -9.35647 | 324 ft | 4 kts | 164° |
| 2026-04-21 15:07 | 38.72530 | -9.35632 | 322 ft | 2 kts | 123° |
| 2026-04-21 15:07 | 38.72528 | -9.35617 | 321 ft | 1 kts | 72° |
| 2026-04-21 15:09 | 38.72535 | -9.35595 | 323 ft | 5 kts | 68° |
| 2026-04-21 15:09 | 38.72543 | -9.35541 | 332 ft | 8 kts | 123° |
| 2026-04-21 15:09 | 38.72543 | -9.35530 | 327 ft | 1 kts | 164° |
| 2026-04-21 15:09 | 38.72538 | -9.35529 | 325 ft | 0 kts | 163° |
| 2026-04-21 15:10 | 38.72536 | -9.35529 | 320 ft | 0 kts | 166° |
| 2026-04-21 15:10 | 38.72535 | -9.35527 | 323 ft | 1 kts | 161° |
| 2026-04-21 15:11 | 38.72455 | -9.35496 | 391 ft | 31 kts | 170° |
| 2026-04-21 15:11 | 38.72084 | -9.35381 | 457 ft | 71 kts | 173° |
| 2026-04-21 15:11 | 38.71594 | -9.35087 | 618 ft | 83 kts | 147° |
| 2026-04-21 15:11 | 38.71320 | -9.34505 | 938 ft | 78 kts | 118° |
| 2026-04-21 15:12 | 38.71234 | -9.33760 | 1124 ft | 91 kts | 106° |
| 2026-04-21 15:12 | 38.71147 | -9.32890 | 1182 ft | 103 kts | 104° |
| 2026-04-21 15:12 | 38.71018 | -9.31935 | 1194 ft | 114 kts | 106° |
| 2026-04-21 15:12 | 38.70937 | -9.30907 | 1191 ft | 121 kts | 98° |
| 2026-04-21 15:13 | 38.70831 | -9.29805 | 1082 ft | 127 kts | 106° |
| 2026-04-21 15:13 | 38.70641 | -9.28682 | 937 ft | 129 kts | 112° |
| 2026-04-21 15:13 | 38.70384 | -9.27597 | 893 ft | 124 kts | 112° |
| 2026-04-21 15:13 | 38.70387 | -9.26506 | 970 ft | 120 kts | 97° |
| 2026-04-21 15:14 | 38.70323 | -9.25438 | 1059 ft | 120 kts | 104° |
| 2026-04-21 15:14 | 38.70002 | -9.24505 | 1135 ft | 115 kts | 135° |
| 2026-04-21 15:14 | 38.69502 | -9.23683 | 1236 ft | 114 kts | 134° |
| 2026-04-21 15:14 | 38.69042 | -9.22881 | 1400 ft | 111 kts | 133° |
| 2026-04-21 15:15 | 38.68570 | -9.22041 | 1429 ft | 118 kts | 133° |
| 2026-04-21 15:15 | 38.68017 | -9.21218 | 1393 ft | 122 kts | 141° |
| 2026-04-21 15:15 | 38.67492 | -9.20387 | 1350 ft | 124 kts | 131° |
| 2026-04-21 15:15 | 38.66943 | -9.19504 | 1229 ft | 122 kts | 135° |
| 2026-04-21 15:16 | 38.66675 | -9.18481 | 1227 ft | 126 kts | 97° |
| 2026-04-21 15:16 | 38.66844 | -9.17350 | 1207 ft | 129 kts | 72° |
| 2026-04-21 15:16 | 38.67290 | -9.16404 | 1308 ft | 121 kts | 57° |
| 2026-04-21 15:16 | 38.67800 | -9.15537 | 1341 ft | 124 kts | 54° |
| 2026-04-21 15:17 | 38.68321 | -9.14620 | 1296 ft | 128 kts | 57° |
| 2026-04-21 15:17 | 38.68874 | -9.13705 | 1263 ft | 130 kts | 52° |
| 2026-04-21 15:17 | 38.69521 | -9.12930 | 1292 ft | 127 kts | 37° |
| 2026-04-21 15:17 | 38.70238 | -9.12199 | 1214 ft | 132 kts | 42° |
| 2026-04-21 15:18 | 38.70904 | -9.11427 | 1280 ft | 126 kts | 44° |
| 2026-04-21 15:18 | 38.71580 | -9.10696 | 1247 ft | 129 kts | 37° |
| 2026-04-21 15:18 | 38.72320 | -9.10044 | 1247 ft | 127 kts | 31° |
| 2026-04-21 15:18 | 38.73063 | -9.09514 | 1232 ft | 119 kts | 27° |
| 2026-04-21 15:19 | 38.73772 | -9.09067 | 1159 ft | 112 kts | 21° |
| 2026-04-21 15:19 | 38.74505 | -9.08753 | 1055 ft | 106 kts | 12° |
| 2026-04-21 15:19 | 38.75195 | -9.08550 | 994 ft | 100 kts | 10° |
| 2026-04-21 15:19 | 38.75864 | -9.08392 | 934 ft | 95 kts | 6° |
| 2026-04-21 15:20 | 38.76508 | -9.08339 | 903 ft | 90 kts | 358° |
| 2026-04-21 15:20 | 38.77161 | -9.08331 | 776 ft | 94 kts | 355° |
| 2026-04-21 15:20 | 38.77668 | -9.08565 | 804 ft | 68 kts | 302° |
| 2026-04-21 15:20 | 38.77869 | -9.09038 | 770 ft | 54 kts | 276° |
| 2026-04-21 15:21 | 38.77925 | -9.09478 | 774 ft | 46 kts | 265° |
| 2026-04-21 15:21 | 38.77951 | -9.09899 | 749 ft | 47 kts | 263° |
| 2026-04-21 15:21 | 38.77988 | -9.10339 | 730 ft | 48 kts | 267° |
| 2026-04-21 15:21 | 38.78003 | -9.10741 | 768 ft | 44 kts | 261° |
| 2026-04-21 15:22 | 38.77924 | -9.11088 | 816 ft | 41 kts | 228° |
| 2026-04-21 15:22 | 38.77670 | -9.11229 | 873 ft | 45 kts | 178° |
| 2026-04-21 15:22 | 38.77518 | -9.10837 | 876 ft | 60 kts | 84° |
| 2026-04-21 15:22 | 38.77824 | -9.10512 | 881 ft | 56 kts | 355° |
| 2026-04-21 15:23 | 38.78171 | -9.10622 | 889 ft | 46 kts | 311° |
| 2026-04-21 15:23 | 38.78320 | -9.10909 | 890 ft | 38 kts | 264° |
| 2026-04-21 15:23 | 38.78212 | -9.11168 | 907 ft | 33 kts | 208° |
| 2026-04-21 15:23 | 38.77947 | -9.11120 | 857 ft | 56 kts | 156° |
| 2026-04-21 15:24 | 38.77810 | -9.10615 | 830 ft | 73 kts | 76° |
| 2026-04-21 15:24 | 38.78148 | -9.10285 | 836 ft | 55 kts | 338° |
| 2026-04-21 15:24 | 38.78406 | -9.10537 | 784 ft | 40 kts | 278° |
| 2026-04-21 15:24 | 38.78488 | -9.10839 | 760 ft | 36 kts | 268° |
| 2026-04-21 15:25 | 38.78570 | -9.11256 | 745 ft | 57 kts | 274° |
| 2026-04-21 15:25 | 38.78666 | -9.11787 | 772 ft | 59 kts | 268° |
| 2026-04-21 15:25 | 38.78679 | -9.12281 | 757 ft | 54 kts | 264° |
| 2026-04-21 15:25 | 38.78706 | -9.12785 | 661 ft | 57 kts | 263° |
| 2026-04-21 15:26 | 38.78649 | -9.13225 | 604 ft | 50 kts | 242° |
| 2026-04-21 15:26 | 38.78426 | -9.13443 | 541 ft | 31 kts | 205° |
| 2026-04-21 15:26 | 38.78272 | -9.13513 | 464 ft | 26 kts | 221° |
| 2026-04-21 15:26 | 38.78156 | -9.13577 | 423 ft | 15 kts | 203° |
| 2026-04-21 15:27 | 38.78052 | -9.13569 | 403 ft | 14 kts | 175° |
| 2026-04-21 15:27 | 38.77998 | -9.13553 | 395 ft | 2 kts | 175° |
| 2026-04-21 15:27 | 38.77937 | -9.13530 | 413 ft | 20 kts | 179° |
| 2026-04-21 15:27 | 38.77829 | -9.13512 | 395 ft | 12 kts | 176° |
| 2026-04-21 15:28 | 38.77722 | -9.13482 | 396 ft | 16 kts | 175° |
| 2026-04-21 15:28 | 38.77645 | -9.13457 | 387 ft | 9 kts | 93° |
| 2026-04-21 15:28 | 38.77663 | -9.13380 | 392 ft | 11 kts | 24° |
| 2026-04-21 15:28 | 38.77736 | -9.13318 | 388 ft | 16 kts | 83° |
| 2026-04-21 15:29 | 38.77752 | -9.13199 | 390 ft | 14 kts | 74° |
| 2026-04-21 15:29 | 38.77770 | -9.13080 | 388 ft | 13 kts | 71° |
| 2026-04-21 15:29 | 38.77831 | -9.13012 | 405 ft | 11 kts | 3° |
| 2026-04-21 15:29 | 38.77919 | -9.13048 | 392 ft | 13 kts | 346° |
| 2026-04-21 15:30 | 38.77990 | -9.13066 | 392 ft | 9 kts | 341° |
| 2026-04-21 15:30 | 38.78076 | -9.13063 | 393 ft | 15 kts | 29° |
| 2026-04-21 15:30 | 38.78139 | -9.13003 | 396 ft | 9 kts | 104° |
| 2026-04-21 15:30 | 38.78127 | -9.12952 | 403 ft | 6 kts | 192° |
| 2026-04-21 15:31 | 38.78115 | -9.12972 | 385 ft | 2 kts | 296° |
| 2026-04-21 15:31 | 38.78119 | -9.12980 | 375 ft | 0 kts | 301° |